createdAt,value
2019-04-14T00:01:19.416Z,6.30
2019-04-14T00:02:40.872Z,6.30
2019-04-14T00:03:50.183Z,6.30
2019-04-14T00:04:55.126Z,6.30
2019-04-14T00:06:02.650Z,6.30
2019-04-14T00:07:07.952Z,6.30
2019-04-14T00:08:13.345Z,6.30
2019-04-14T00:09:20.449Z,6.30
2019-04-14T00:10:24.863Z,6.30
2019-04-14T00:11:30.094Z,6.30
2019-04-14T00:12:34.443Z,6.30
2019-04-14T00:13:39.277Z,6.30
2019-04-14T00:14:44.606Z,6.30
2019-04-14T00:15:50.756Z,6.30
2019-04-14T00:16:55.332Z,6.40
2019-04-14T00:17:59.659Z,6.30
2019-04-14T00:19:04.425Z,6.30
2019-04-14T00:20:09.569Z,6.40
2019-04-14T00:21:15.049Z,6.30
2019-04-14T00:22:20.519Z,6.30
2019-04-14T00:23:26.064Z,6.30
2019-04-14T00:24:31.323Z,6.30
2019-04-14T00:25:35.541Z,6.30
2019-04-14T00:26:40.187Z,6.30
2019-04-14T00:27:45.339Z,6.30
2019-04-14T00:28:49.784Z,6.30
2019-04-14T00:29:54.572Z,6.30
2019-04-14T00:30:59.869Z,6.30
2019-04-14T00:32:05.162Z,6.30
2019-04-14T00:33:10.636Z,6.30
2019-04-14T00:34:39.928Z,6.30
2019-04-14T00:35:51.613Z,6.30
2019-04-14T00:37:18.472Z,6.30
2019-04-14T00:38:36.845Z,6.20
2019-04-14T00:39:44.627Z,6.20
2019-04-14T00:41:07.780Z,6.20
2019-04-14T00:42:31.999Z,6.20
2019-04-14T00:43:52.717Z,6.20
2019-04-14T00:45:00.945Z,6.20
2019-04-14T00:46:19.006Z,6.20
2019-04-14T00:47:31.040Z,6.10
2019-04-14T00:48:36.521Z,6.10
2019-04-14T00:49:41.859Z,6.10
2019-04-14T00:50:47.305Z,6.10
2019-04-14T00:51:52.711Z,6.10
2019-04-14T00:52:57.069Z,6.10
2019-04-14T00:54:02.164Z,6.10
2019-04-14T00:55:07.556Z,6.10
2019-04-14T00:56:12.858Z,6.10
2019-04-14T00:57:18.070Z,6.00
2019-04-14T00:58:23.524Z,6.00
2019-04-14T00:59:28.953Z,6.00
2019-04-14T01:00:34.179Z,6.00
2019-04-14T01:01:39.412Z,6.00
2019-04-14T01:02:44.832Z,6.00
2019-04-14T01:03:50.298Z,6.00
2019-04-14T01:04:55.534Z,6.00
2019-04-14T01:06:01.062Z,6.00
2019-04-14T01:07:06.446Z,6.00
2019-04-14T01:08:11.897Z,5.90
2019-04-14T01:09:17.234Z,5.90
2019-04-14T01:10:21.708Z,5.90
2019-04-14T01:11:27.015Z,6.00
2019-04-14T01:12:32.115Z,5.90
2019-04-14T01:13:37.455Z,5.90
2019-04-14T01:14:43.045Z,5.90
2019-04-14T01:15:57.322Z,5.90
2019-04-14T01:16:53.822Z,5.90
2019-04-14T01:17:59.224Z,5.90
2019-04-14T01:19:04.702Z,5.90
2019-04-14T01:20:10.093Z,5.90
2019-04-14T01:21:15.341Z,5.90
2019-04-14T01:22:20.592Z,5.80
2019-04-14T01:23:26.027Z,5.80
2019-04-14T01:24:31.438Z,5.80
2019-04-14T01:25:36.812Z,5.80
2019-04-14T01:26:42.001Z,5.90
2019-04-14T01:27:47.411Z,5.80
2019-04-14T01:28:52.646Z,5.80
2019-04-14T01:29:58.065Z,5.80
2019-04-14T01:31:03.363Z,5.80
2019-04-14T01:32:08.780Z,5.80
2019-04-14T01:33:14.036Z,5.80
2019-04-14T01:34:19.419Z,5.80
2019-04-14T01:35:24.831Z,5.80
2019-04-14T01:36:29.873Z,5.80
2019-04-14T01:37:35.194Z,5.80
2019-04-14T01:38:40.602Z,5.80
2019-04-14T01:39:45.951Z,5.80
2019-04-14T01:40:51.005Z,5.80
2019-04-14T01:41:56.329Z,5.80
2019-04-14T01:43:01.698Z,5.80
2019-04-14T01:44:06.844Z,5.70
2019-04-14T01:45:12.226Z,5.70
2019-04-14T01:46:21.701Z,5.70
2019-04-14T01:47:22.751Z,5.70
2019-04-14T01:48:28.027Z,5.70
2019-04-14T01:49:33.276Z,5.60
2019-04-14T01:50:47.332Z,5.60
2019-04-14T01:52:16.816Z,5.60
2019-04-14T01:53:46.761Z,5.60
2019-04-14T01:55:04.800Z,5.60
2019-04-14T01:56:18.659Z,5.50
2019-04-14T01:57:41.451Z,5.50
2019-04-14T01:58:49.127Z,5.50
2019-04-14T01:59:54.352Z,5.50
2019-04-14T02:01:17.882Z,5.40
2019-04-14T02:02:24.809Z,5.40
2019-04-14T02:03:30.155Z,5.40
2019-04-14T02:04:35.505Z,5.40
2019-04-14T02:05:40.698Z,5.30
2019-04-14T02:06:45.998Z,5.30
2019-04-14T02:07:51.520Z,5.30
2019-04-14T02:08:56.854Z,5.30
2019-04-14T02:10:02.010Z,5.30
2019-04-14T02:11:07.311Z,5.20
2019-04-14T02:12:12.776Z,5.20
2019-04-14T02:13:18.183Z,5.20
2019-04-14T02:14:23.336Z,5.20
2019-04-14T02:15:28.695Z,5.20
2019-04-14T02:16:40.287Z,5.20
2019-04-14T02:17:39.213Z,5.20
2019-04-14T02:18:44.805Z,5.20
2019-04-14T02:19:50.212Z,5.20
2019-04-14T02:20:55.644Z,5.20
2019-04-14T02:22:00.682Z,5.20
2019-04-14T02:23:06.076Z,5.20
2019-04-14T02:24:11.378Z,5.20
2019-04-14T02:25:16.561Z,5.20
2019-04-14T02:26:21.969Z,5.20
2019-04-14T02:27:27.418Z,5.20
2019-04-14T02:28:33.069Z,5.20
2019-04-14T02:29:38.287Z,5.20
2019-04-14T02:30:53.897Z,5.20
2019-04-14T02:32:17.555Z,5.20
2019-04-14T02:33:26.039Z,5.20
2019-04-14T02:34:34.182Z,5.20
2019-04-14T02:35:37.224Z,5.20
2019-04-14T02:36:41.712Z,5.20
2019-04-14T02:37:43.301Z,5.20
2019-04-14T02:39:08.833Z,5.20
2019-04-14T02:40:04.100Z,5.20
2019-04-14T02:41:03.786Z,5.20
2019-04-14T02:42:19.471Z,5.20
2019-04-14T02:43:25.775Z,5.20
2019-04-14T02:45:29.557Z,5.20
2019-04-14T02:46:41.111Z,5.20
2019-04-14T02:49:50.637Z,5.10
2019-04-14T02:50:55.567Z,5.10
2019-04-14T02:53:07.904Z,5.10
2019-04-14T02:54:11.883Z,5.10
2019-04-14T02:55:19.355Z,5.00
2019-04-14T02:56:30.972Z,5.00
2019-04-14T02:57:30.485Z,5.00
2019-04-14T02:58:44.488Z,4.90
2019-04-14T02:59:45.342Z,4.90
2019-04-14T03:00:52.613Z,4.90
2019-04-14T03:02:09.933Z,4.90
2019-04-14T03:02:56.805Z,4.90
2019-04-14T03:04:03.805Z,4.90
2019-04-14T03:05:09.767Z,4.90
2019-04-14T03:06:20.402Z,4.90
2019-04-14T03:07:32.260Z,4.90
2019-04-14T03:08:34.523Z,4.90
2019-04-14T03:10:58.752Z,4.80
2019-04-14T03:11:47.549Z,4.80
2019-04-14T03:13:00.653Z,4.80
2019-04-14T03:14:02.871Z,4.80
2019-04-14T03:15:07.211Z,4.80
2019-04-14T03:16:13.741Z,4.80
2019-04-14T03:17:43.344Z,4.80
2019-04-14T03:18:52.386Z,4.70
2019-04-14T03:22:18.286Z,4.70
2019-04-14T03:23:19.424Z,4.70
2019-04-14T03:24:27.484Z,4.70
2019-04-14T03:25:43.658Z,4.60
2019-04-14T03:28:28.297Z,4.60
2019-04-14T03:29:36.439Z,4.60
2019-04-14T03:33:18.452Z,4.60
2019-04-14T03:35:47.863Z,4.50
2019-04-14T03:36:44.899Z,4.50
2019-04-14T03:37:39.242Z,4.50
2019-04-14T03:38:24.684Z,4.50
2019-04-14T03:39:38.838Z,4.50
2019-04-14T03:41:47.735Z,4.50
2019-04-14T03:43:46.616Z,4.50
2019-04-14T03:45:05.413Z,4.40
2019-04-14T03:46:17.148Z,4.40
2019-04-14T03:47:13.904Z,4.40
2019-04-14T03:50:31.439Z,4.40
2019-04-14T03:52:48.105Z,4.40
2019-04-14T03:53:43.966Z,4.40
2019-04-14T03:54:46.648Z,4.40
2019-04-14T03:56:14.373Z,4.40
2019-04-14T03:57:17.560Z,4.30
2019-04-14T03:58:22.586Z,4.30
2019-04-14T03:59:28.071Z,4.30
2019-04-14T04:00:33.489Z,4.30
2019-04-14T04:01:39.064Z,4.30
2019-04-14T04:02:44.444Z,4.30
2019-04-14T04:03:49.943Z,4.30
2019-04-14T04:04:55.452Z,4.30
2019-04-14T04:06:00.771Z,4.30
2019-04-14T04:07:06.138Z,4.20
2019-04-14T04:08:11.491Z,4.20
2019-04-14T04:09:17.026Z,4.20
2019-04-14T04:10:22.547Z,4.20
2019-04-14T04:11:27.930Z,4.20
2019-04-14T04:12:33.492Z,4.20
2019-04-14T04:13:38.983Z,4.20
2019-04-14T04:14:44.187Z,4.20
2019-04-14T04:15:49.819Z,4.20
2019-04-14T04:17:19.237Z,4.20
2019-04-14T04:18:26.543Z,4.20
2019-04-14T04:19:55.984Z,4.10
2019-04-14T04:21:29.158Z,4.20
2019-04-14T04:22:56.466Z,4.10
2019-04-14T04:24:08.490Z,4.10
2019-04-14T04:25:31.055Z,4.10
2019-04-14T04:26:41.317Z,4.10
2019-04-14T04:28:03.771Z,4.10
2019-04-14T04:29:12.032Z,4.10
2019-04-14T04:30:31.785Z,4.10
2019-04-14T04:32:01.388Z,4.10
2019-04-14T04:33:19.901Z,4.10
2019-04-14T04:34:49.652Z,4.00
2019-04-14T04:35:58.605Z,4.00
2019-04-14T04:37:22.212Z,4.00
2019-04-14T04:38:31.298Z,4.00
2019-04-14T04:39:39.647Z,4.00
2019-04-14T04:40:44.081Z,4.00
2019-04-14T04:41:49.336Z,4.00
2019-04-14T04:42:54.791Z,4.00
2019-04-14T04:43:59.198Z,4.00
2019-04-14T04:45:03.956Z,4.00
2019-04-14T04:46:09.129Z,4.00
2019-04-14T04:47:14.343Z,4.00
2019-04-14T04:48:19.656Z,4.00
2019-04-14T04:49:27.315Z,4.00
2019-04-14T04:50:30.362Z,4.00
2019-04-14T04:51:35.652Z,4.00
2019-04-14T04:52:40.733Z,4.00
2019-04-14T04:53:45.987Z,4.00
2019-04-14T04:54:51.557Z,4.00
2019-04-14T04:55:56.809Z,4.00
2019-04-14T04:57:02.384Z,4.00
2019-04-14T04:58:07.807Z,4.00
2019-04-14T04:59:12.701Z,4.00
2019-04-14T05:00:17.887Z,4.00
2019-04-14T05:01:23.115Z,4.00
2019-04-14T05:02:28.697Z,4.00
2019-04-14T05:03:33.943Z,4.10
2019-04-14T05:04:39.352Z,4.10
2019-04-14T05:06:30.959Z,4.10
2019-04-14T05:07:36.191Z,4.10
2019-04-14T05:08:47.954Z,4.10
2019-04-14T05:10:11.448Z,4.10
2019-04-14T05:11:23.776Z,4.10
2019-04-14T05:12:35.532Z,4.20
2019-04-14T05:13:42.367Z,4.20
2019-04-14T05:14:52.345Z,4.20
2019-04-14T05:15:58.503Z,4.20
2019-04-14T05:17:03.643Z,4.30
2019-04-14T05:18:09.255Z,4.30
2019-04-14T05:19:23.001Z,4.30
2019-04-14T05:20:20.255Z,4.40
2019-04-14T05:21:25.560Z,4.40
2019-04-14T05:22:31.012Z,4.40
2019-04-14T05:23:36.436Z,4.40
2019-04-14T05:24:41.782Z,4.50
2019-04-14T05:25:47.250Z,4.50
2019-04-14T05:26:52.672Z,4.50
2019-04-14T05:27:57.970Z,4.60
2019-04-14T05:29:03.490Z,4.60
2019-04-14T05:30:08.899Z,4.60
2019-04-14T05:31:14.218Z,4.70
2019-04-14T05:32:19.444Z,4.70
2019-04-14T05:33:24.946Z,4.70
2019-04-14T05:34:30.396Z,4.80
2019-04-14T05:35:35.742Z,4.80
2019-04-14T05:36:41.067Z,4.80
2019-04-14T05:37:46.393Z,4.80
2019-04-14T05:38:51.769Z,4.90
2019-04-14T05:39:56.973Z,4.90
2019-04-14T05:41:02.570Z,5.00
2019-04-14T05:42:13.241Z,5.00
2019-04-14T05:43:17.126Z,5.10
2019-04-14T05:44:18.816Z,5.10
2019-04-14T05:45:24.010Z,5.20
2019-04-14T05:46:29.522Z,5.20
2019-04-14T05:47:34.929Z,5.30
2019-04-14T05:48:40.351Z,5.30
2019-04-14T05:49:48.203Z,5.40
2019-04-14T05:50:51.227Z,5.40
2019-04-14T05:51:56.574Z,5.50
2019-04-14T05:53:02.170Z,5.60
2019-04-14T05:54:07.717Z,5.60
2019-04-14T05:55:13.389Z,5.70
2019-04-14T05:56:18.644Z,5.70
2019-04-14T05:57:24.106Z,5.80
2019-04-14T05:58:29.598Z,5.90
2019-04-14T05:59:35.225Z,6.00
2019-04-14T06:00:43.668Z,6.10
2019-04-14T06:01:48.836Z,6.20
2019-04-14T06:02:53.085Z,6.40
2019-04-14T06:03:58.165Z,6.50
2019-04-14T06:05:03.610Z,6.60
2019-04-14T06:06:07.992Z,6.70
2019-04-14T06:07:12.218Z,6.90
2019-04-14T06:08:16.501Z,7.30
2019-04-14T06:09:20.720Z,7.70
2019-04-14T06:10:24.957Z,8.10
2019-04-14T06:11:29.184Z,8.40
2019-04-14T06:12:33.411Z,8.70
2019-04-14T06:13:37.681Z,9.20
2019-04-14T06:14:41.904Z,9.80
2019-04-14T06:15:46.139Z,10.40
2019-04-14T06:16:50.359Z,10.90
2019-04-14T06:17:54.588Z,11.30
2019-04-14T06:18:58.843Z,11.50
2019-04-14T06:20:03.068Z,11.50
2019-04-14T06:21:07.315Z,11.60
2019-04-14T06:22:11.544Z,11.80
2019-04-14T06:23:15.776Z,12.10
2019-04-14T06:24:20.039Z,12.50
2019-04-14T06:25:24.274Z,12.80
2019-04-14T06:26:28.492Z,12.90
2019-04-14T06:27:32.804Z,13.20
2019-04-14T06:28:37.058Z,13.60
2019-04-14T06:29:41.312Z,13.90
2019-04-14T06:31:04.467Z,14.10
2019-04-14T06:32:45.889Z,13.90
2019-04-14T06:33:55.842Z,13.80
2019-04-14T06:35:26.639Z,13.70
2019-04-14T06:36:55.943Z,13.70
2019-04-14T06:38:05.660Z,13.80
2019-04-14T06:39:12.368Z,13.90
2019-04-14T06:40:16.600Z,14.00
2019-04-14T06:41:21.351Z,13.90
2019-04-14T06:42:25.591Z,13.90
2019-04-14T06:43:29.816Z,13.80
2019-04-14T06:44:34.076Z,13.60
2019-04-14T06:45:38.309Z,13.70
2019-04-14T06:46:42.559Z,13.90
2019-04-14T06:47:46.774Z,14.10
2019-04-14T06:48:50.947Z,14.20
2019-04-14T06:49:55.134Z,14.30
2019-04-14T06:50:59.359Z,14.50
2019-04-14T06:52:03.599Z,14.80
2019-04-14T06:53:07.820Z,15.10
2019-04-14T06:54:12.039Z,15.50
2019-04-14T06:55:16.391Z,15.70
2019-04-14T06:56:20.603Z,15.90
2019-04-14T06:57:24.828Z,16.10
2019-04-14T06:58:29.116Z,16.10
2019-04-14T06:59:33.344Z,16.00
2019-04-14T07:00:37.612Z,16.10
2019-04-14T07:01:41.987Z,16.00
2019-04-14T07:02:48.009Z,16.00
2019-04-14T07:03:52.083Z,15.60
2019-04-14T07:04:56.350Z,15.60
2019-04-14T07:06:00.585Z,15.80
2019-04-14T07:07:04.812Z,15.70
2019-04-14T07:08:09.170Z,15.80
2019-04-14T07:09:13.395Z,15.60
2019-04-14T07:10:17.661Z,15.50
2019-04-14T07:11:21.895Z,15.40
2019-04-14T07:12:26.144Z,15.20
2019-04-14T07:13:30.371Z,15.20
2019-04-14T07:14:34.620Z,15.20
2019-04-14T07:15:39.044Z,15.60
2019-04-14T07:16:43.276Z,16.00
2019-04-14T07:17:47.519Z,16.20
2019-04-14T07:18:51.759Z,16.20
2019-04-14T07:20:01.974Z,16.30
2019-04-14T07:21:01.903Z,16.40
2019-04-14T07:22:06.225Z,16.50
2019-04-14T07:23:10.453Z,16.20
2019-04-14T07:24:14.693Z,16.20
2019-04-14T07:25:18.958Z,16.30
2019-04-14T07:26:23.224Z,16.50
2019-04-14T07:27:27.609Z,17.00
2019-04-14T07:28:31.904Z,17.50
2019-04-14T07:29:55.077Z,18.00
2019-04-14T07:31:33.440Z,18.60
2019-04-14T07:32:52.989Z,19.10
2019-04-14T07:34:16.165Z,19.40
2019-04-14T07:35:38.764Z,19.30
2019-04-14T07:37:02.795Z,19.30
2019-04-14T07:38:20.779Z,19.30
2019-04-14T07:39:33.693Z,19.40
2019-04-14T07:41:08.973Z,19.50
2019-04-14T07:42:27.667Z,19.50
2019-04-14T07:43:50.846Z,19.40
2019-04-14T07:45:16.768Z,19.30
2019-04-14T07:46:35.610Z,18.50
2019-04-14T07:48:01.936Z,17.90
2019-04-14T07:49:25.109Z,17.70
2019-04-14T07:51:06.872Z,17.80
2019-04-14T07:52:37.179Z,18.10
2019-04-14T07:54:09.164Z,18.70
2019-04-14T07:55:20.378Z,19.30
2019-04-14T07:56:37.655Z,19.40
2019-04-14T07:58:04.219Z,19.60
2019-04-14T07:59:30.250Z,20.10
2019-04-14T08:00:56.596Z,20.80
2019-04-14T08:02:28.911Z,21.40
2019-04-14T08:03:40.373Z,21.80
2019-04-14T08:04:54.285Z,21.50
2019-04-14T08:05:58.504Z,21.60
2019-04-14T08:07:02.906Z,21.70
2019-04-14T08:08:07.280Z,21.80
2019-04-14T08:09:11.485Z,22.10
2019-04-14T08:10:15.752Z,22.30
2019-04-14T08:11:20.014Z,22.60
2019-04-14T08:12:24.282Z,22.90
2019-04-14T08:13:28.520Z,23.40
2019-04-14T08:14:32.752Z,23.70
2019-04-14T08:15:36.983Z,24.00
2019-04-14T08:16:41.231Z,24.30
2019-04-14T08:17:45.515Z,24.50
2019-04-14T08:18:49.749Z,24.50
2019-04-14T08:19:53.997Z,24.90
2019-04-14T08:20:58.236Z,25.20
2019-04-14T08:22:02.472Z,25.50
2019-04-14T08:23:06.725Z,25.80
2019-04-14T08:24:10.969Z,26.00
2019-04-14T08:25:15.199Z,26.30
2019-04-14T08:26:19.435Z,26.80
2019-04-14T08:27:23.683Z,27.20
2019-04-14T08:28:27.968Z,27.40
2019-04-14T08:29:32.204Z,27.60
2019-04-14T08:30:36.460Z,27.60
2019-04-14T08:31:40.744Z,27.40
2019-04-14T08:32:45.079Z,27.30
2019-04-14T08:33:49.333Z,26.90
2019-04-14T08:34:53.575Z,27.00
2019-04-14T08:35:57.894Z,27.40
2019-04-14T08:37:02.149Z,27.90
2019-04-14T08:38:06.436Z,28.30
2019-04-14T08:39:10.669Z,28.50
2019-04-14T08:40:14.914Z,28.70
2019-04-14T08:41:19.186Z,28.60
2019-04-14T08:42:45.183Z,28.80
2019-04-14T08:44:07.284Z,29.10
2019-04-14T08:45:39.571Z,28.70
2019-04-14T08:47:01.839Z,27.90
2019-04-14T08:48:23.668Z,27.30
2019-04-14T08:49:37.108Z,27.20
2019-04-14T08:51:00.274Z,27.30
2019-04-14T08:52:24.169Z,27.70
2019-04-14T08:53:34.595Z,28.20
2019-04-14T08:54:44.512Z,28.50
2019-04-14T08:56:19.810Z,28.80
2019-04-14T08:57:35.714Z,28.90
2019-04-14T08:58:53.778Z,29.10
2019-04-14T09:00:17.619Z,28.80
2019-04-14T09:01:30.619Z,28.70
2019-04-14T09:02:53.804Z,28.90
2019-04-14T09:04:09.010Z,28.90
2019-04-14T09:05:35.184Z,29.10
2019-04-14T09:07:01.096Z,29.30
2019-04-14T09:08:16.856Z,29.70
2019-04-14T09:09:26.956Z,30.20
2019-04-14T09:10:35.020Z,30.50
2019-04-14T09:11:43.991Z,30.80
2019-04-14T09:12:49.745Z,31.00
2019-04-14T09:13:53.977Z,31.10
2019-04-14T09:14:58.251Z,31.10
2019-04-14T09:16:02.476Z,31.10
2019-04-14T09:17:06.732Z,31.30
2019-04-14T09:18:10.959Z,31.50
2019-04-14T09:19:15.200Z,31.70
2019-04-14T09:20:19.467Z,31.90
2019-04-14T09:21:23.702Z,31.90
2019-04-14T09:22:27.934Z,32.00
2019-04-14T09:23:32.192Z,32.20
2019-04-14T09:24:36.423Z,32.20
2019-04-14T09:25:40.769Z,32.30
2019-04-14T09:26:45.004Z,32.30
2019-04-14T09:27:49.255Z,32.40
2019-04-14T09:28:53.504Z,32.80
2019-04-14T09:29:57.775Z,33.10
2019-04-14T09:31:02.023Z,33.30
2019-04-14T09:32:07.955Z,33.40
2019-04-14T09:33:12.187Z,33.40
2019-04-14T09:34:16.439Z,33.50
2019-04-14T09:35:20.726Z,33.30
2019-04-14T09:36:24.953Z,32.90
2019-04-14T09:37:29.197Z,33.00
2019-04-14T09:38:33.449Z,32.90
2019-04-14T09:39:37.714Z,32.20
2019-04-14T09:40:41.993Z,32.30
2019-04-14T09:41:46.227Z,32.40
2019-04-14T09:42:50.469Z,32.50
2019-04-14T09:43:54.704Z,32.60
2019-04-14T09:44:58.936Z,32.00
2019-04-14T09:46:03.215Z,31.50
2019-04-14T09:47:07.475Z,31.60
2019-04-14T09:48:11.707Z,31.80
2019-04-14T09:49:15.949Z,32.10
2019-04-14T09:50:20.318Z,32.30
2019-04-14T09:51:24.550Z,32.70
2019-04-14T09:52:28.787Z,32.90
2019-04-14T09:53:33.037Z,32.60
2019-04-14T09:54:37.268Z,32.30
2019-04-14T09:55:41.541Z,32.50
2019-04-14T09:56:45.782Z,32.90
2019-04-14T09:57:50.140Z,33.00
2019-04-14T09:58:57.009Z,33.30
2019-04-14T10:00:01.240Z,33.50
2019-04-14T10:01:05.514Z,33.30
2019-04-14T10:02:09.751Z,32.80
2019-04-14T10:03:13.998Z,32.60
2019-04-14T10:04:18.251Z,32.10
2019-04-14T10:05:22.500Z,32.10
2019-04-14T10:06:26.769Z,32.30
2019-04-14T10:07:31.171Z,32.20
2019-04-14T10:08:35.423Z,32.10
2019-04-14T10:09:39.772Z,31.30
2019-04-14T10:10:44.048Z,30.20
2019-04-14T10:11:50.155Z,28.50
2019-04-14T10:12:54.163Z,28.60
2019-04-14T10:13:58.398Z,28.90
2019-04-14T10:15:02.636Z,29.20
2019-04-14T10:16:06.915Z,29.10
2019-04-14T10:17:11.165Z,29.20
2019-04-14T10:18:15.417Z,28.70
2019-04-14T10:19:19.660Z,28.70
2019-04-14T10:20:23.893Z,28.70
2019-04-14T10:21:28.177Z,28.40
2019-04-14T10:22:34.118Z,28.30
2019-04-14T10:23:39.608Z,28.60
2019-04-14T10:24:43.947Z,29.20
2019-04-14T10:25:48.256Z,29.90
2019-04-14T10:26:52.567Z,30.40
2019-04-14T10:27:57.380Z,30.70
2019-04-14T10:29:01.608Z,30.50
2019-04-14T10:30:06.460Z,29.60
2019-04-14T10:31:10.737Z,29.60
2019-04-14T10:32:14.977Z,29.80
2019-04-14T10:33:19.234Z,30.20
2019-04-14T10:34:23.471Z,30.30
2019-04-14T10:35:27.709Z,29.90
2019-04-14T10:36:32.025Z,30.10
2019-04-14T10:37:36.264Z,30.60
2019-04-14T10:38:40.604Z,31.00
2019-04-14T10:39:44.852Z,31.20
2019-04-14T10:40:49.380Z,31.10
2019-04-14T10:41:53.719Z,31.30
2019-04-14T10:42:57.975Z,31.40
2019-04-14T10:44:02.241Z,31.60
2019-04-14T10:45:06.709Z,31.70
2019-04-14T10:46:11.014Z,31.30
2019-04-14T10:47:15.301Z,30.60
2019-04-14T10:59:53.369Z,30.40
2019-04-14T11:00:57.588Z,30.80
2019-04-14T11:02:01.869Z,30.80
2019-04-14T11:03:06.127Z,31.00
2019-04-14T11:04:10.385Z,31.30
2019-04-14T11:05:14.603Z,30.20
2019-04-14T11:06:26.507Z,29.70
2019-04-14T11:07:31.781Z,29.30
2019-04-14T11:08:36.016Z,28.90
2019-04-14T11:09:40.254Z,28.40
2019-04-14T11:10:44.480Z,28.00
2019-04-14T11:11:48.714Z,27.30
2019-04-14T11:12:53.012Z,26.70
2019-04-14T11:13:57.240Z,26.50
2019-04-14T11:15:01.480Z,26.70
2019-04-14T11:16:05.703Z,27.30
2019-04-14T11:17:10.036Z,27.60
2019-04-14T11:18:14.268Z,28.20
2019-04-14T11:19:18.511Z,28.70
2019-04-14T11:20:22.732Z,28.70
2019-04-14T11:21:46.139Z,28.40
2019-04-14T11:23:02.539Z,28.70
2019-04-14T11:23:56.283Z,29.00
2019-04-14T11:25:00.539Z,29.50
2019-04-14T11:26:04.779Z,30.10
2019-04-14T11:27:09.007Z,30.20
2019-04-14T11:28:13.262Z,30.10
2019-04-14T11:29:17.507Z,29.90
2019-04-14T11:30:22.543Z,28.40
2019-04-14T11:31:44.676Z,27.60
2019-04-14T11:32:56.991Z,27.20
2019-04-14T11:34:01.690Z,26.10
2019-04-14T11:35:34.401Z,25.40
2019-04-14T11:36:56.604Z,25.10
2019-04-14T11:38:20.792Z,24.70
2019-04-14T11:39:25.034Z,24.40
2019-04-14T11:40:34.688Z,24.20
2019-04-14T11:41:38.848Z,24.70
2019-04-14T11:42:52.246Z,25.60
2019-04-14T11:43:49.122Z,26.20
2019-04-14T11:44:53.373Z,26.90
2019-04-14T11:45:57.802Z,26.80
2019-04-14T11:47:02.078Z,26.90
2019-04-14T11:48:06.294Z,27.40
2019-04-14T11:49:10.604Z,27.40
2019-04-14T11:50:14.844Z,28.00
2019-04-14T11:51:19.081Z,28.60
2019-04-14T11:52:23.315Z,28.80
2019-04-14T11:53:27.539Z,29.20
2019-04-14T11:54:31.791Z,29.30
2019-04-14T11:55:36.037Z,28.30
2019-04-14T11:56:40.275Z,27.60
2019-04-14T11:57:44.522Z,27.10
2019-04-14T11:58:48.899Z,26.50
2019-04-14T12:00:21.141Z,25.80
2019-04-14T12:01:53.592Z,25.40
2019-04-14T12:03:20.579Z,25.10
2019-04-14T12:04:37.846Z,25.10
2019-04-14T12:05:59.736Z,25.70
2019-04-14T12:07:22.917Z,26.20
2019-04-14T12:08:36.507Z,26.60
2019-04-14T12:10:05.771Z,26.70
2019-04-14T12:11:09.991Z,26.70
2019-04-14T12:12:14.236Z,26.30
2019-04-14T12:13:18.462Z,26.00
2019-04-14T12:14:22.697Z,25.50
2019-04-14T12:15:26.960Z,25.30
2019-04-14T12:16:31.219Z,24.80
2019-04-14T12:17:35.415Z,24.10
2019-04-14T12:18:39.680Z,24.20
2019-04-14T12:19:43.933Z,24.40
2019-04-14T12:20:48.158Z,24.30
2019-04-14T12:21:52.404Z,24.40
2019-04-14T12:22:56.642Z,24.40
2019-04-14T12:24:00.902Z,24.30
2019-04-14T12:25:06.074Z,24.00
2019-04-14T12:26:10.302Z,23.80
2019-04-14T12:27:14.573Z,23.80
2019-04-14T12:28:19.400Z,23.70
2019-04-14T12:29:23.696Z,23.50
2019-04-14T12:30:29.030Z,23.20
2019-04-14T12:31:33.532Z,23.20
2019-04-14T12:32:37.751Z,23.30
2019-04-14T12:33:42.004Z,23.70
2019-04-14T12:34:46.267Z,23.90
2019-04-14T12:35:50.501Z,23.60
2019-04-14T12:36:54.746Z,23.30
2019-04-14T12:37:59.038Z,23.20
2019-04-14T12:39:04.363Z,23.30
2019-04-14T12:40:08.633Z,23.40
2019-04-14T12:41:17.727Z,23.20
2019-04-14T12:42:33.882Z,22.70
2019-04-14T12:43:54.333Z,22.50
2019-04-14T12:45:10.230Z,21.80
2019-04-14T12:46:27.032Z,21.50
2019-04-14T12:47:56.459Z,21.40
2019-04-14T12:49:05.367Z,21.20
2019-04-14T12:50:18.879Z,20.40
2019-04-14T12:51:30.215Z,20.10
2019-04-14T12:52:34.448Z,19.90
2019-04-14T12:53:38.713Z,19.90
2019-04-14T12:54:42.972Z,20.00
2019-04-14T12:55:47.236Z,19.90
2019-04-14T12:56:51.571Z,19.50
2019-04-14T12:57:58.741Z,19.50
2019-04-14T12:59:23.346Z,19.50
2019-04-14T13:00:35.412Z,19.70
2019-04-14T13:01:43.792Z,19.80
2019-04-14T13:02:50.159Z,20.00
2019-04-14T13:03:54.416Z,20.10
2019-04-14T13:04:59.102Z,20.10
2019-04-14T13:06:03.379Z,20.00
2019-04-14T13:07:07.611Z,19.50
2019-04-14T13:08:11.858Z,19.10
2019-04-14T13:09:16.066Z,19.00
2019-04-14T13:10:20.301Z,19.00
2019-04-14T13:11:24.568Z,19.10
2019-04-14T13:12:28.817Z,19.10
2019-04-14T13:13:33.056Z,18.80
2019-04-14T13:14:37.276Z,18.60
2019-04-14T13:15:41.549Z,18.50
2019-04-14T13:16:45.806Z,18.30
2019-04-14T13:17:50.045Z,18.10
2019-04-14T13:18:54.317Z,17.90
2019-04-14T13:19:58.578Z,17.70
2019-04-14T13:21:02.824Z,17.50
2019-04-14T13:22:07.051Z,17.40
2019-04-14T13:23:11.290Z,17.50
2019-04-14T13:24:15.554Z,17.70
2019-04-14T13:25:19.757Z,17.90
2019-04-14T13:26:24.037Z,18.00
2019-04-14T13:27:28.275Z,18.00
2019-04-14T13:28:32.504Z,18.10
2019-04-14T13:29:36.745Z,18.20
2019-04-14T13:30:43.160Z,18.10
2019-04-14T13:31:47.524Z,18.00
2019-04-14T13:32:51.787Z,18.20
2019-04-14T13:33:56.012Z,18.20
2019-04-14T13:35:00.241Z,18.10
2019-04-14T13:36:04.511Z,18.10
2019-04-14T13:37:08.771Z,18.00
2019-04-14T13:38:13.018Z,18.00
2019-04-14T13:39:17.265Z,18.00
2019-04-14T13:40:21.519Z,18.00
2019-04-14T13:41:25.779Z,17.90
2019-04-14T13:42:30.012Z,17.80
2019-04-14T13:43:34.236Z,17.60
2019-04-14T13:44:38.481Z,17.30
2019-04-14T13:45:42.720Z,17.10
2019-04-14T13:46:47.063Z,17.00
2019-04-14T13:47:51.320Z,17.10
2019-04-14T13:48:55.558Z,17.10
2019-04-14T13:49:59.813Z,17.20
2019-04-14T13:51:04.076Z,17.20
2019-04-14T13:52:08.355Z,17.20
2019-04-14T13:53:12.583Z,17.30
2019-04-14T13:54:16.806Z,17.30
2019-04-14T13:55:21.047Z,17.30
2019-04-14T13:56:25.335Z,17.20
2019-04-14T13:57:29.612Z,17.20
2019-04-14T13:58:33.842Z,17.30
2019-04-14T13:59:38.072Z,17.20
2019-04-14T14:00:42.305Z,17.10
2019-04-14T14:01:46.539Z,17.10
2019-04-14T14:02:50.820Z,16.80
2019-04-14T14:03:55.056Z,16.80
2019-04-14T14:04:59.289Z,16.70
2019-04-14T14:06:03.645Z,16.70
2019-04-14T14:07:08.275Z,16.60
2019-04-14T14:08:12.529Z,16.60
2019-04-14T14:09:16.971Z,16.60
2019-04-14T14:10:21.195Z,16.60
2019-04-14T14:11:53.673Z,16.60
2019-04-14T14:13:09.039Z,16.70
2019-04-14T14:14:47.591Z,16.60
2019-04-14T14:16:19.775Z,16.50
2019-04-14T14:17:33.059Z,16.30
2019-04-14T14:18:51.756Z,16.00
2019-04-14T14:20:03.891Z,16.10
2019-04-14T14:21:39.034Z,16.30
2019-04-14T14:23:17.435Z,16.30
2019-04-14T14:24:49.828Z,16.40
2019-04-14T14:25:59.068Z,16.30
2019-04-14T14:27:03.320Z,16.30
2019-04-14T14:28:07.579Z,16.40
2019-04-14T14:29:14.840Z,16.30
2019-04-14T14:30:20.399Z,16.20
2019-04-14T14:31:24.673Z,16.30
2019-04-14T14:32:31.673Z,16.30
2019-04-14T14:33:35.935Z,16.40
2019-04-14T14:34:40.177Z,16.40
2019-04-14T14:35:44.496Z,16.30
2019-04-14T14:36:48.720Z,15.90
2019-04-14T14:37:52.946Z,15.80
2019-04-14T14:38:57.221Z,15.90
2019-04-14T14:40:01.453Z,15.90
2019-04-14T14:41:06.795Z,15.90
2019-04-14T14:42:11.024Z,16.00
2019-04-14T14:43:15.299Z,16.00
2019-04-14T14:44:19.854Z,15.90
2019-04-14T14:45:54.909Z,15.90
2019-04-14T14:47:27.135Z,15.90
2019-04-14T14:48:34.675Z,15.70
2019-04-14T14:49:56.691Z,15.50
2019-04-14T14:51:04.975Z,15.50
2019-04-14T14:52:11.315Z,15.30
2019-04-14T14:53:15.552Z,15.20
2019-04-14T14:54:19.811Z,15.10
2019-04-14T14:55:24.040Z,15.10
2019-04-14T14:56:28.283Z,15.20
2019-04-14T14:57:32.535Z,15.20
2019-04-14T14:58:36.903Z,15.20
2019-04-14T14:59:41.142Z,15.30
2019-04-14T15:00:45.388Z,15.30
2019-04-14T15:01:49.616Z,15.20
2019-04-14T15:02:55.289Z,15.00
2019-04-14T15:03:59.573Z,14.80
2019-04-14T15:05:03.799Z,14.80
2019-04-14T15:06:08.573Z,14.70
2019-04-14T15:07:12.817Z,14.50
2019-04-14T15:08:17.405Z,14.40
2019-04-14T15:09:21.682Z,14.20
2019-04-14T15:10:26.112Z,14.20
2019-04-14T15:11:30.415Z,14.30
2019-04-14T15:12:34.659Z,14.20
2019-04-14T15:13:38.940Z,14.10
2019-04-14T15:14:43.186Z,14.00
2019-04-14T15:15:47.424Z,14.10